Time;durP1;ratioP1;P1;durP2;ratioP2;P2;SDS_P1;SDS_P2;PMS_P1;PMS_P2;Temp;Humidity;BMP_temperature;BMP_pressure;BME280_temperature;BME280_humidity;BME280_pressure;Samples;Min_cycle;Max_cycle;Signal;HPM_P1;HPM_P2
2022/10/22 00:01:08;;;;;;;13.77;11.13;;;;;;;9.50;100.00;100822.09;4952505;29;20090;-67
2022/10/22 00:03:33;;;;;;;13.05;10.60;;;;;;;9.49;100.00;100826.63;4935586;29;20463;-67
2022/10/22 00:06:02;;;;;;;14.40;10.07;;;;;;;9.32;100.00;100795.69;4952663;29;20564;-67
2022/10/22 00:08:28;;;;;;;11.93;10.25;;;;;;;9.49;100.00;100823.94;4952845;29;20035;-67
2022/10/22 00:10:53;;;;;;;11.85;10.65;;;;;;;9.53;100.00;100829.75;4952802;29;20038;-67
2022/10/22 00:13:19;;;;;;;12.32;11.00;;;;;;;9.53;100.00;100829.75;4935365;29;20565;-67
2022/10/22 00:15:44;;;;;;;13.50;10.90;;;;;;;9.54;100.00;100828.75;4935470;29;20039;-67
2022/10/22 00:18:10;;;;;;;11.40;10.20;;;;;;;9.49;100.00;100820.44;4952743;29;20418;-67
2022/10/22 00:20:35;;;;;;;12.93;10.57;;;;;;;9.29;100.00;100793.38;4952341;28;20126;-67
2022/10/22 00:23:01;;;;;;;11.00;9.90;;;;;;;9.45;100.00;100813.78;4952291;29;20042;-67
2022/10/22 00:25:26;;;;;;;11.60;9.63;;;;;;;9.41;100.00;100802.59;4952652;29;20517;-67
2022/10/22 00:27:51;;;;;;;11.38;10.18;;;;;;;9.55;100.00;100833.94;4935498;29;20031;-67
2022/10/22 00:30:17;;;;;;;11.30;10.05;;;;;;;9.50;100.00;100817.53;4919070;29;20095;-67
2022/10/22 00:32:42;;;;;;;11.95;10.82;;;;;;;9.57;100.00;100828.34;4919468;29;20047;-67
2022/10/22 00:35:08;;;;;;;13.13;9.80;;;;;;;9.60;100.00;100833.34;4952584;29;20038;-67
2022/10/22 00:37:34;;;;;;;11.40;10.20;;;;;;;9.58;100.00;100828.19;4952805;29;20043;-67
2022/10/22 00:40:00;;;;;;;10.63;9.48;;;;;;;9.61;100.00;100824.28;4952543;29;20526;-67
2022/10/22 00:42:29;;;;;;;10.57;9.48;;;;;;;9.58;100.00;100821.97;4934494;29;20039;-67
2022/10/22 00:44:59;;;;;;;11.15;9.98;;;;;;;9.56;100.00;100824.00;4951506;29;20493;-67
2022/10/22 00:47:45;;;;;;;11.48;9.88;;;;;;;9.56;100.00;100821.31;4933633;29;20155;-67
2022/10/22 00:50:23;;;;;;;10.25;9.25;;;;;;;9.52;100.00;100820.06;4950098;29;20042;-67
2022/10/22 00:52:49;;;;;;;12.15;9.82;;;;;;;9.39;100.00;100799.25;4919260;29;20082;-67
2022/10/22 00:55:17;;;;;;;10.50;9.40;;;;;;;9.50;100.00;100822.09;4954457;29;20098;-67
2022/10/22 00:57:43;;;;;;;10.48;9.48;;;;;;;9.49;100.00;100817.75;4954556;29;20054;-67
2022/10/22 01:00:09;;;;;;;12.88;9.27;;;;;;;9.53;100.00;100813.66;4937943;29;20491;-67
2022/10/22 01:02:35;;;;;;;10.48;9.40;;;;;;;9.46;100.00;100810.06;4955482;29;20042;-67
2022/10/22 01:05:00;;;;;;;12.32;9.80;;;;;;;9.52;100.00;100818.19;4955715;29;20024;-67
2022/10/22 01:07:26;;;;;;;10.88;9.75;;;;;;;9.46;100.00;100807.38;4919301;29;20043;-67
2022/10/22 01:09:59;;;;;;;10.23;9.30;;;;;;;9.50;100.00;100814.84;4932085;29;20070;-67
2022/10/22 01:13:36;;;;;;;12.30;10.27;;;;;;;9.52;100.00;100806.63;4955377;29;20494;-67
2022/10/22 01:16:13;;;;;;;10.05;8.85;;;;;;;9.44;100.00;100804.91;4818958;29;20164;-67
2022/10/22 01:19:05;;;;;;;9.75;8.75;;;;;;;9.45;100.00;100806.56;4926363;29;20028;-67
2022/10/22 01:21:40;;;;;;;9.88;8.88;;;;;;;9.40;100.00;100803.59;4915790;29;20065;-67
2022/10/22 01:24:11;;;;;;;12.88;8.68;;;;;;;9.43;100.00;100800.53;4954937;29;20041;-67
2022/10/22 01:26:52;;;;;;;9.68;8.70;;;;;;;9.45;100.00;100808.41;4955270;29;20553;-68
2022/10/22 01:29:22;;;;;;;10.20;9.07;;;;;;;9.48;100.00;100808.03;4932107;29;20063;-68
2022/10/22 01:31:55;;;;;;;9.93;8.82;;;;;;;9.45;100.00;100795.00;4936004;29;20054;-68
2022/10/22 01:34:23;;;;;;;9.70;8.80;;;;;;;9.44;100.00;100801.38;4935982;29;20032;-67
2022/10/22 01:36:51;;;;;;;9.77;8.88;;;;;;;9.49;100.00;100791.72;4918859;29;20036;-67
2022/10/22 01:39:18;;;;;;;9.85;8.85;;;;;;;9.33;100.00;100768.63;4935882;29;20103;-67
2022/10/22 01:41:44;;;;;;;9.95;8.93;;;;;;;9.53;100.00;100792.16;4935893;29;20035;-67
2022/10/22 01:44:29;;;;;;;9.82;8.93;;;;;;;9.55;100.00;100787.44;4918536;29;20028;-68
2022/10/22 01:47:10;;;;;;;9.85;8.95;;;;;;;9.54;100.00;100788.47;4904952;29;20110;-67
2022/10/22 01:50:07;;;;;;;10.77;9.48;;;;;;;9.52;100.00;100785.13;4935755;29;20288;-68
2022/10/22 01:52:46;;;;;;;12.15;9.13;;;;;;;9.40;100.00;100782.97;4918234;29;20497;-67
2022/10/22 01:55:38;;;;;;;10.05;9.05;;;;;;;9.43;100.00;100780.91;4935477;29;20047;-67
2022/10/22 01:58:07;;;;;;;10.90;9.85;;;;;;;9.37;100.00;100786.03;4935674;29;20062;-67
2022/10/22 02:00:37;;;;;;;9.77;8.77;;;;;;;9.35;100.00;100781.88;4918331;29;20498;-68
2022/10/22 02:03:16;;;;;;;9.32;8.43;;;;;;;9.31;100.00;100776.06;4935559;29;20398;-68
2022/10/22 02:05:58;;;;;;;10.18;9.18;;;;;;;9.24;100.00;100767.13;4917046;29;20119;-68
2022/10/22 02:08:29;;;;;;;9.40;8.55;;;;;;;9.26;100.00;100778.47;4935249;29;20031;-68
2022/10/22 02:10:57;;;;;;;10.18;8.43;;;;;;;9.28;100.00;100778.31;4918360;29;20038;-68
2022/10/22 02:13:32;;;;;;;11.85;8.70;;;;;;;9.34;100.00;100775.69;4935095;29;20099;-67
2022/10/22 02:15:58;;;;;;;12.88;8.90;;;;;;;9.40;100.00;100772.22;4918326;29;20043;-68
2022/10/22 02:18:29;;;;;;;9.98;9.00;;;;;;;9.38;100.00;100779.63;4917805;29;20044;-68
2022/10/22 02:20:56;;;;;;;9.80;8.75;;;;;;;9.36;100.00;100775.47;4918213;29;20023;-67
2022/10/22 02:23:21;;;;;;;10.20;8.93;;;;;;;9.36;100.00;100772.78;4935009;29;20160;-68
2022/10/22 02:25:54;;;;;;;10.07;9.15;;;;;;;9.38;100.00;100768.91;4917906;29;20129;-68
2022/10/22 02:28:30;;;;;;;9.40;8.52;;;;;;;9.33;100.00;100771.31;4934921;29;20032;-68
2022/10/22 02:31:02;;;;;;;10.13;9.13;;;;;;;9.33;100.00;100771.31;4953441;29;20545;-68
2022/10/22 02:33:35;;;;;;;10.50;9.00;;;;;;;9.24;100.00;100755.53;4953702;29;20039;-67
2022/10/22 02:36:02;;;;;;;9.20;8.30;;;;;;;9.16;100.00;100748.44;4954006;29;20767;-68
2022/10/22 02:38:29;;;;;;;10.35;9.18;;;;;;;9.31;100.00;100770.69;4936770;29;20035;-68
2022/10/22 02:40:55;;;;;;;9.68;8.68;;;;;;;9.27;100.00;100768.56;4953941;29;20162;-68
2022/10/22 02:43:23;;;;;;;12.32;9.15;;;;;;;9.27;100.00;100766.72;4936473;29;20118;-68
2022/10/22 02:45:48;;;;;;;10.10;9.07;;;;;;;9.28;100.00;100768.38;4953810;29;20035;-68
2022/10/22 02:48:13;;;;;;;11.00;9.82;;;;;;;9.19;100.00;100745.38;4936491;29;20618;-68
2022/10/22 02:50:45;;;;;;;11.20;9.95;;;;;;;9.36;100.00;100770.09;4953615;29;20038;-68
2022/10/22 02:53:11;;;;;;;10.98;9.98;;;;;;;9.33;100.00;100765.94;4936240;29;20054;-68
2022/10/22 02:55:36;;;;;;;11.35;10.15;;;;;;;9.32;100.00;100763.47;4936499;29;20034;-67
2022/10/22 02:58:01;;;;;;;11.30;9.73;;;;;;;9.28;100.00;100763.00;4936423;29;20450;-67
2022/10/22 03:00:29;;;;;;;13.25;10.32;;;;;;;9.28;100.00;100763.00;4953513;29;20046;-67
2022/10/22 03:02:55;;;;;;;11.00;9.90;;;;;;;9.27;100.00;100758.69;4953523;29;20047;-67
2022/10/22 03:05:20;;;;;;;11.65;10.55;;;;;;;9.26;100.00;100759.69;4953249;29;20114;-67
2022/10/22 03:07:45;;;;;;;12.75;11.13;;;;;;;9.29;100.00;100761.97;4936347;29;20047;-67
2022/10/22 03:10:11;;;;;;;12.38;11.00;;;;;;;9.29;100.00;100758.47;4952917;29;20050;-67
2022/10/22 03:12:38;;;;;;;11.07;9.98;;;;;;;9.23;100.00;100760.06;4919834;29;20047;-67
2022/10/22 03:15:03;;;;;;;11.52;9.93;;;;;;;9.21;100.00;100753.25;4935924;29;20039;-67
2022/10/22 03:17:29;;;;;;;12.70;9.65;;;;;;;9.22;100.00;100752.22;4953232;28;20039;-68
2022/10/22 03:19:54;;;;;;;12.07;9.82;;;;;;;9.23;100.00;100754.69;4936100;29;20039;-68
2022/10/22 03:22:26;;;;;;;11.85;10.07;;;;;;;9.15;100.00;100736.03;4953144;29;20043;-68
2022/10/22 03:24:57;;;;;;;11.70;10.50;;;;;;;9.16;100.00;100745.75;4953142;29;20154;-67
2022/10/22 03:27:23;;;;;;;10.60;9.50;;;;;;;9.25;100.00;100757.19;4953385;29;20038;-67
2022/10/22 03:29:53;;;;;;;11.20;10.18;;;;;;;9.36;100.00;100759.38;4953071;28;20051;-67
2022/10/22 03:32:19;;;;;;;10.73;9.63;;;;;;;9.23;100.00;100733.22;4952999;29;20027;-67
2022/10/22 03:34:46;;;;;;;10.70;9.65;;;;;;;9.43;100.00;100754.06;4953071;29;20537;-68
2022/10/22 03:37:12;;;;;;;10.85;9.80;;;;;;;9.38;100.00;100754.66;4935684;28;20043;-67
2022/10/22 03:39:37;;;;;;;10.93;9.30;;;;;;;9.35;100.00;100757.72;4953180;29;20039;-68
2022/10/22 03:42:05;;;;;;;10.18;9.18;;;;;;;9.38;100.00;100757.31;4935877;29;20045;-68
2022/10/22 03:44:38;;;;;;;10.38;9.25;;;;;;;9.39;100.00;100780.47;4935705;29;20039;-68
2022/10/22 03:47:04;;;;;;;21.58;18.15;;;;;;;9.40;100.00;100766.00;4875202;29;20045;-68
2022/10/22 03:49:29;;;;;;;14.50;13.07;;;;;;;9.39;100.00;100762.50;4859512;29;20049;-68
2022/10/22 03:51:55;;;;;;;15.38;10.60;;;;;;;9.37;100.00;100767.25;4859303;29;20049;-68
2022/10/22 03:54:20;;;;;;;12.65;10.50;;;;;;;9.36;100.00;100765.56;4875020;29;20496;-68
2022/10/22 03:56:45;;;;;;;14.27;12.75;;;;;;;9.39;100.00;100769.72;4875231;29;20041;-68
2022/10/22 03:59:12;;;;;;;12.48;10.77;;;;;;;9.40;100.00;100766.88;4875068;29;20081;-68
2022/10/22 04:01:37;;;;;;;11.50;10.35;;;;;;;9.44;100.00;100767.31;4856479;29;20198;-68
2022/10/22 04:04:03;;;;;;;11.25;10.25;;;;;;;9.46;100.00;100769.78;4854230;29;20045;-67
2022/10/22 04:06:28;;;;;;;11.40;10.30;;;;;;;9.01;100.00;100692.13;4874878;29;20053;-68
2022/10/22 04:08:54;;;;;;;11.35;10.25;;;;;;;9.46;100.00;100767.09;4874782;29;20063;-67
2022/10/22 04:11:19;;;;;;;12.07;9.40;;;;;;;9.42;100.00;100755.91;4874993;29;20047;-68
2022/10/22 04:13:47;;;;;;;10.45;9.32;;;;;;;9.46;100.00;100767.09;4856118;29;20057;-68
2022/10/22 04:16:21;;;;;;;11.90;10.07;;;;;;;9.49;100.00;100766.72;4855832;29;20044;-68
2022/10/22 04:18:48;;;;;;;10.73;9.27;;;;;;;9.48;100.00;100763.19;4923540;29;20063;-68
2022/10/22 04:21:15;;;;;;;12.07;10.25;;;;;;;9.50;100.00;100765.69;4935501;28;20058;-68
2022/10/22 04:23:46;;;;;;;9.82;8.93;;;;;;;9.50;100.00;100765.69;4952525;29;20027;-68
2022/10/22 04:26:12;;;;;;;10.35;9.35;;;;;;;9.50;100.00;100771.88;4952738;28;20073;-68
2022/10/22 04:28:37;;;;;;;10.60;9.52;;;;;;;9.52;100.00;100771.69;4936587;29;20541;-68
2022/10/22 04:31:08;;;;;;;10.82;9.77;;;;;;;9.46;100.00;100770.63;4939013;29;20078;-68
2022/10/22 04:33:33;;;;;;;11.82;10.15;;;;;;;9.52;100.00;100771.69;4923169;28;20063;-68
2022/10/22 04:35:59;;;;;;;11.68;10.45;;;;;;;9.52;100.00;100777.06;4938954;29;20612;-68
2022/10/22 04:38:24;;;;;;;13.23;9.68;;;;;;;9.52;100.00;100774.38;4956327;29;20038;-68
2022/10/22 04:40:49;;;;;;;10.57;9.48;;;;;;;9.49;100.00;100775.59;4955769;29;20050;-68
2022/10/22 04:43:15;;;;;;;11.55;9.98;;;;;;;9.42;100.00;100774.72;4938912;29;20031;-68
2022/10/22 04:45:40;;;;;;;11.85;9.85;;;;;;;9.37;100.00;100769.06;4919788;29;20046;-69
2022/10/22 04:48:06;;;;;;;11.80;10.70;;;;;;;9.37;100.00;100767.25;4938483;29;20067;-68
2022/10/22 04:50:31;;;;;;;13.52;11.60;;;;;;;9.44;100.00;100777.19;4938607;29;20035;-69
2022/10/22 04:52:57;;;;;;;12.70;11.38;;;;;;;9.39;100.00;100770.53;4955919;29;20075;-68
2022/10/22 04:55:22;;;;;;;12.73;11.02;;;;;;;9.41;100.00;100773.06;4938585;29;20047;-68
2022/10/22 04:57:48;;;;;;;11.45;10.23;;;;;;;9.36;100.00;100778.97;4955854;28;20093;-68
2022/10/22 05:00:15;;;;;;;11.77;10.68;;;;;;;9.34;100.00;100773.00;4955727;29;20102;-68
2022/10/22 05:02:43;;;;;;;14.05;11.18;;;;;;;9.44;100.00;100778.06;4955742;29;20386;-68
2022/10/22 05:05:08;;;;;;;12.85;10.77;;;;;;;9.48;100.00;100783.88;4938865;28;20031;-68
2022/10/22 05:07:34;;;;;;;12.52;11.32;;;;;;;9.34;100.00;100751.50;4955944;29;20042;-68
2022/10/22 05:10:01;;;;;;;11.85;10.65;;;;;;;9.47;100.00;100776.81;4938247;29;20127;-68
2022/10/22 05:12:28;;;;;;;13.90;11.10;;;;;;;9.37;100.00;100767.25;4938308;29;20499;-68
2022/10/22 05:14:54;;;;;;;32.63;24.65;;;;;;;9.41;100.00;100776.56;4922519;29;20094;-68
2022/10/22 05:17:20;;;;;;;16.00;12.80;;;;;;;9.25;100.00;100751.84;4938512;29;20035;-68
2022/10/22 05:19:45;;;;;;;12.35;10.63;;;;;;;9.40;100.00;100777.59;4955575;29;20090;-68
2022/10/22 05:22:10;;;;;;;12.15;10.45;;;;;;;9.39;100.00;100775.91;4955450;28;20039;-68
2022/10/22 05:24:36;;;;;;;10.88;9.82;;;;;;;9.39;100.00;100775.09;4955161;29;20062;-68
2022/10/22 05:27:04;;;;;;;12.82;9.55;;;;;;;9.39;100.00;100780.47;4955202;29;20038;-68
2022/10/22 05:29:29;;;;;;;11.18;10.07;;;;;;;9.40;100.00;100785.66;4938224;29;20202;-68
2022/10/22 05:31:55;;;;;;;83.88;63.75;;;;;;;9.50;100.00;100787.16;4937985;29;20096;-68
2022/10/22 05:34:20;;;;;;;47.15;37.95;;;;;;;9.47;100.00;100783.03;4938060;29;20038;-75
2022/10/22 05:36:46;;;;;;;40.50;28.67;;;;;;;9.49;100.00;100793.56;4955186;29;20027;-68
2022/10/22 05:39:11;;;;;;;35.35;26.60;;;;;;;9.50;100.00;100789.84;4937966;29;20070;-67
2022/10/22 05:41:37;;;;;;;23.90;19.33;;;;;;;9.53;100.00;100787.63;4955152;29;20039;-68
2022/10/22 05:44:03;;;;;;;20.73;17.02;;;;;;;9.56;100.00;100795.28;4921827;29;20346;-66
2022/10/22 05:46:32;;;;;;;14.15;12.65;;;;;;;9.58;100.00;100798.63;4954751;29;20126;-65
2022/10/22 05:48:59;;;;;;;12.40;10.40;;;;;;;9.58;100.00;100795.94;4955133;29;20545;-67
2022/10/22 05:51:30;;;;;;;12.10;10.80;;;;;;;9.50;100.00;100784.47;4955154;29;20150;-67
2022/10/22 05:53:58;;;;;;;9.95;8.95;;;;;;;9.50;100.00;100781.78;4937880;29;20036;-65
2022/10/22 05:56:26;;;;;;;9.68;8.68;;;;;;;9.48;100.00;100792.75;4954754;29;20098;-66
2022/10/22 05:58:51;;;;;;;10.20;9.20;;;;;;;9.35;100.00;100769.28;4937587;29;20031;-65
2022/10/22 06:01:41;;;;;;;9.82;8.93;;;;;;;9.50;100.00;100795.22;4954401;29;20511;-67
2022/10/22 06:04:10;;;;;;;9.13;8.27;;;;;;;9.53;100.00;100798.34;4895105;29;20032;-66
2022/10/22 06:06:47;;;;;;;10.07;9.10;;;;;;;9.55;100.00;100808.94;4895454;29;20045;-68
2022/10/22 06:09:18;;;;;;;8.85;8.07;;;;;;;9.58;100.00;100800.47;4895580;29;20530;-68
2022/10/22 06:11:44;;;;;;;9.10;8.20;;;;;;;9.44;100.00;100777.19;4895316;29;20044;-66
2022/10/22 06:14:10;;;;;;;10.85;9.25;;;;;;;9.59;100.00;100810.19;4895189;29;20044;-68
2022/10/22 06:16:36;;;;;;;10.75;9.65;;;;;;;9.37;100.00;100769.06;4895112;29;20563;-66
2022/10/22 06:19:02;;;;;;;9.50;8.40;;;;;;;9.59;100.00;100808.34;4894744;29;20512;-67
2022/10/22 06:21:28;;;;;;;10.90;9.57;;;;;;;9.56;100.00;100808.72;4894959;29;20065;-66
2022/10/22 06:23:56;;;;;;;13.02;9.70;;;;;;;9.55;100.00;100806.25;4894955;29;20047;-67
2022/10/22 06:26:21;;;;;;;10.38;9.27;;;;;;;9.58;100.00;100806.69;4879485;29;20543;-67
2022/10/22 06:28:47;;;;;;;10.70;9.35;;;;;;;9.59;100.00;100812.88;4895230;29;20036;-67
2022/10/22 06:31:13;;;;;;;8.85;7.93;;;;;;;9.61;100.00;100811.69;4895314;29;20072;-67
2022/10/22 06:33:42;;;;;;;11.52;8.85;;;;;;;9.48;100.00;100790.06;4879425;29;20029;-67
2022/10/22 06:36:27;;;;;;;8.75;7.95;;;;;;;9.66;100.00;100819.16;4945707;29;20043;-68
2022/10/22 06:38:54;;;;;;;9.73;8.82;;;;;;;9.67;100.00;100814.59;4938535;29;20565;-67
2022/10/22 06:41:20;;;;;;;10.23;9.13;;;;;;;9.68;100.00;100814.41;4953916;29;20038;-66
2022/10/22 06:43:45;;;;;;;11.45;9.98;;;;;;;9.72;100.00;100815.69;4936467;29;20023;-67
2022/10/22 06:46:13;;;;;;;10.80;9.70;;;;;;;9.71;100.00;100810.53;4953535;29;20101;-67
2022/10/22 06:48:39;;;;;;;11.70;10.32;;;;;;;9.71;100.00;100813.22;4953847;29;20121;-67
2022/10/22 06:51:10;;;;;;;10.30;9.30;;;;;;;9.73;100.00;100822.72;4920176;29;20050;-69
2022/10/22 06:53:37;;;;;;;11.95;10.13;;;;;;;9.73;100.00;100822.72;4953778;29;20030;-65
2022/10/22 06:56:14;;;;;;;9.68;8.27;;;;;;;9.76;100.00;100825.03;4953493;29;20406;-67
2022/10/22 06:58:40;;;;;;;9.77;8.88;;;;;;;9.79;100.00;100823.81;4915903;29;20042;-66
2022/10/22 07:01:10;;;;;;;9.38;7.32;;;;;;;9.83;100.00;100835.84;4951547;29;20039;-67
2022/10/22 07:03:37;;;;;;;8.73;7.93;;;;;;;9.78;100.00;100812.25;4951386;29;20113;-66
2022/10/22 07:06:05;;;;;;;8.60;7.70;;;;;;;9.89;100.00;100830.50;4952082;29;20089;-68
2022/10/22 07:08:32;;;;;;;9.60;8.70;;;;;;;9.89;100.00;100838.56;4952536;29;20042;-65
2022/10/22 07:11:07;;;;;;;8.02;7.22;;;;;;;9.77;100.00;100818.66;4934866;29;20187;-65
2022/10/22 07:13:33;;;;;;;9.80;8.40;;;;;;;9.87;100.00;100827.22;4951947;29;20128;-65
2022/10/22 07:15:58;;;;;;;8.85;7.95;;;;;;;9.93;100.00;100830.13;4920166;29;20353;-65
2022/10/22 07:18:24;;;;;;;11.65;8.02;;;;;;;9.93;100.00;100840.88;4935912;28;20035;-65
2022/10/22 07:20:50;;;;;;;8.63;7.82;;;;;;;9.88;100.00;100828.84;4936211;29;20038;-65
2022/10/22 07:23:16;;;;;;;9.50;8.25;;;;;;;9.97;100.00;100836.81;4953421;28;20387;-66
2022/10/22 07:25:42;;;;;;;13.20;8.80;;;;;;;9.92;100.00;100840.06;4953143;29;20035;-65
2022/10/22 07:28:07;;;;;;;9.75;8.13;;;;;;;9.93;100.00;100835.50;4953168;29;20038;-65
2022/10/22 07:30:50;;;;;;;8.75;7.95;;;;;;;9.90;100.00;100836.75;4952520;29;20466;-65
2022/10/22 07:33:15;;;;;;;9.45;8.55;;;;;;;9.98;100.00;100843.81;4938539;29;20031;-65
2022/10/22 07:35:42;;;;;;;11.75;10.23;;;;;;;10.02;100.00;100843.22;4953097;29;20035;-65
2022/10/22 07:38:08;;;;;;;10.10;9.10;;;;;;;9.95;100.00;100842.34;4935569;29;20031;-65
2022/10/22 07:40:34;;;;;;;9.23;8.32;;;;;;;10.24;100.00;100848.59;4952778;28;20414;-65
2022/10/22 07:43:00;;;;;;;10.18;8.70;;;;;;;10.29;100.00;100852.34;4953144;29;20031;-66
2022/10/22 07:45:25;;;;;;;10.63;9.38;;;;;;;10.23;100.00;100852.28;4952903;29;20067;-66
2022/10/22 07:47:51;;;;;;;9.43;8.43;;;;;;;10.21;100.00;100844.41;4950653;29;20372;-65
2022/10/22 07:50:17;;;;;;;9.88;8.43;;;;;;;10.21;100.00;100848.97;4935209;29;20033;-65
2022/10/22 07:52:42;;;;;;;8.95;8.07;;;;;;;10.04;100.00;100832.31;4934303;29;20031;-65
2022/10/22 07:55:08;;;;;;;9.82;8.85;;;;;;;10.18;100.00;100852.88;4952116;28;20398;-64
2022/10/22 07:57:34;;;;;;;8.95;8.13;;;;;;;10.03;100.00;100831.47;4934675;29;20043;-65
2022/10/22 07:59:59;;;;;;;9.15;8.25;;;;;;;10.14;100.00;100854.31;4951542;29;20043;-64
2022/10/22 08:02:25;;;;;;;7.78;7.07;;;;;;;10.17;100.00;100853.91;4952165;28;20464;-64
2022/10/22 08:04:50;;;;;;;7.95;7.15;;;;;;;10.21;100.00;100860.56;4939121;29;20015;-64
2022/10/22 08:07:17;;;;;;;8.70;7.82;;;;;;;10.25;100.00;100852.94;4939427;29;20039;-64
2022/10/22 08:09:42;;;;;;;8.75;7.85;;;;;;;10.32;100.00;100860.03;4956620;29;20500;-64
2022/10/22 08:12:08;;;;;;;8.65;7.72;;;;;;;10.23;100.00;100846.91;4956587;29;20035;-64
2022/10/22 08:14:33;;;;;;;7.88;6.85;;;;;;;10.33;100.00;100867.09;4938981;29;20506;-64
2022/10/22 08:16:59;;;;;;;7.55;6.95;;;;;;;10.35;100.00;100859.66;4939250;29;20038;-64
2022/10/22 08:19:24;;;;;;;7.63;6.95;;;;;;;10.32;100.00;100864.59;4939404;29;20071;-64
2022/10/22 08:21:50;;;;;;;6.88;6.28;;;;;;;10.44;100.00;100870.28;4939502;29;20063;-64
2022/10/22 08:24:15;;;;;;;7.45;6.70;;;;;;;10.50;100.00;100874.88;4938471;29;20118;-64
2022/10/22 08:26:41;;;;;;;6.90;6.20;;;;;;;10.54;100.00;100870.75;4953652;28;20047;-63
2022/10/22 08:29:06;;;;;;;5.55;5.05;;;;;;;10.60;100.00;100877.22;4936673;29;20142;-64
2022/10/22 08:31:33;;;;;;;7.20;5.60;;;;;;;10.44;100.00;100844.19;4937145;29;20043;-63
2022/10/22 08:33:58;;;;;;;7.53;5.90;;;;;;;10.58;100.00;100874.72;4954248;29;20529;-64
2022/10/22 08:36:24;;;;;;;6.53;5.80;;;;;;;10.60;100.00;100878.03;4953769;29;20109;-65
2022/10/22 08:38:49;;;;;;;5.97;5.30;;;;;;;10.61;100.00;100873.47;4937307;29;20420;-66
2022/10/22 08:41:17;;;;;;;6.30;5.70;;;;;;;10.64;100.00;100876.59;4921322;29;20039;-64
2022/10/22 08:44:15;;;;;;;5.95;5.45;;;;;;;10.68;100.00;100867.09;4936719;29;20490;-65
2022/10/22 08:47:19;;;;;;;5.72;5.22;;;;;;;10.78;100.00;100872.97;4936512;29;20058;-64
2022/10/22 08:49:45;;;;;;;5.70;5.00;;;;;;;10.88;100.00;100874.47;4904198;29;20430;-66
2022/10/22 08:52:14;;;;;;;5.53;5.03;;;;;;;10.90;100.00;100873.25;4950564;29;20038;-65
2022/10/22 08:55:00;;;;;;;6.40;5.65;;;;;;;10.99;100.00;100868.50;4938300;29;20031;-65
2022/10/22 08:57:47;;;;;;;5.38;4.82;;;;;;;11.00;100.00;100872.88;4938554;29;20442;-65
2022/10/22 09:00:20;;;;;;;4.78;4.35;;;;;;;11.05;100.00;100873.91;4955665;28;20031;-65
2022/10/22 09:02:57;;;;;;;5.53;4.63;;;;;;;11.07;100.00;100879.13;4955560;29;20368;-65
2022/10/22 09:05:55;;;;;;;4.80;4.30;;;;;;;11.01;100.00;100879.91;4955745;29;20482;-65
2022/10/22 09:08:21;;;;;;;4.30;3.90;;;;;;;10.99;100.00;100876.56;4955561;29;20050;-65
2022/10/22 09:10:57;;;;;;;4.72;4.20;;;;;;;10.86;100.00;100879.19;4955328;29;20023;-65
2022/10/22 09:13:23;;;;;;;4.35;3.95;;;;;;;10.87;100.00;100881.72;4938132;28;20035;-65
2022/10/22 09:15:54;;;;;;;3.75;3.45;;;;;;;10.89;100.00;100878.81;4954937;29;20035;-65
2022/10/22 09:18:34;;;;;;;3.90;3.50;;;;;;;10.95;100.00;100889.59;4955584;29;20042;-65
2022/10/22 09:21:12;;;;;;;5.13;4.10;;;;;;;10.95;100.00;100883.41;4923880;29;20033;-65
2022/10/22 09:23:53;;;;;;;6.07;3.95;;;;;;;10.61;100.00;100838.50;4955417;29;20375;-65
2022/10/22 09:26:18;;;;;;;5.88;4.53;;;;;;;10.84;100.00;100882.09;4955024;29;20047;-65
2022/10/22 09:28:49;;;;;;;4.68;4.18;;;;;;;10.84;100.00;100882.09;4954899;29;20043;-66
2022/10/22 09:31:14;;;;;;;5.15;4.20;;;;;;;10.85;100.00;100883.75;4955037;29;20054;-65
2022/10/22 09:33:45;;;;;;;5.55;4.47;;;;;;;10.82;100.00;100886.84;4954974;28;20486;-66
2022/10/22 09:36:20;;;;;;;4.95;4.45;;;;;;;10.84;100.00;100892.88;4937696;29;20054;-66
2022/10/22 09:38:51;;;;;;;5.28;4.20;;;;;;;10.81;100.00;100891.41;4937761;29;20650;-66
2022/10/22 09:41:24;;;;;;;4.43;4.03;;;;;;;10.84;100.00;100889.34;4955124;29;20427;-66
2022/10/22 09:43:50;;;;;;;4.72;4.20;;;;;;;10.85;100.00;100891.84;4955332;29;20257;-66
2022/10/22 09:46:23;;;;;;;4.75;4.35;;;;;;;10.81;100.00;100883.31;4937715;29;20482;-66
2022/10/22 09:48:58;;;;;;;4.90;4.32;;;;;;;10.85;100.00;100883.75;4954486;28;20031;-66
2022/10/22 09:51:52;;;;;;;4.97;4.47;;;;;;;10.82;100.00;100886.84;4954419;29;20453;-66
2022/10/22 09:54:30;;;;;;;5.18;4.40;;;;;;;10.88;100.00;100893.31;4954561;29;20034;-66
2022/10/22 09:57:02;;;;;;;5.10;4.68;;;;;;;10.90;100.00;100891.25;4922370;29;20372;-66
2022/10/22 09:59:36;;;;;;;5.35;4.45;;;;;;;10.92;100.00;100894.56;4954997;28;20542;-66
2022/10/22 10:02:16;;;;;;;5.18;4.00;;;;;;;10.99;100.00;100892.72;4954297;29;20506;-66
2022/10/22 10:04:49;;;;;;;4.68;4.20;;;;;;;11.05;100.00;100900.00;4954561;29;20110;-67
2022/10/22 10:07:36;;;;;;;6.55;4.85;;;;;;;11.14;100.00;100901.50;4954364;28;20043;-66
2022/10/22 10:10:22;;;;;;;5.00;4.50;;;;;;;11.18;100.00;100900.06;4892876;29;20044;-66
2022/10/22 10:12:59;;;;;;;7.30;5.57;;;;;;;11.31;100.00;100898.47;4855476;29;20057;-66
2022/10/22 10:15:35;;;;;;;8.23;7.30;;;;;;;11.37;100.00;100898.50;4855505;29;20057;-66
2022/10/22 10:18:38;;;;;;;7.03;6.20;;;;;;;11.41;100.00;100898.91;4840036;29;20577;-66
2022/10/22 10:21:08;;;;;;;7.72;6.35;;;;;;;11.40;100.00;100902.66;4826582;29;20034;-66
2022/10/22 10:24:15;;;;;;;5.55;4.95;;;;;;;11.45;100.00;100902.88;4856437;29;20044;-67
2022/10/22 10:26:51;;;;;;;4.82;4.38;;;;;;;11.51;100.00;100905.56;4816999;29;20119;-67
2022/10/22 10:29:50;;;;;;;3.25;2.75;;;;;;;11.49;100.00;100914.94;4836650;29;20053;-66
2022/10/22 10:32:34;;;;;;;2.60;2.33;;;;;;;11.41;100.00;100910.53;4842191;29;20071;-65
2022/10/22 10:35:20;;;;;;;2.95;2.53;;;;;;;11.44;100.00;100912.81;4857680;29;20053;-65
2022/10/22 10:38:08;;;;;;;4.20;2.80;;;;;;;11.50;100.00;100917.41;4857582;29;20049;-66
2022/10/22 10:40:41;;;;;;;4.32;3.13;;;;;;;11.50;100.00;100912.00;4843197;29;20044;-66
2022/10/22 10:43:20;;;;;;;4.35;3.70;;;;;;;11.50;100.00;100920.09;4894715;29;20075;-65
2022/10/22 10:46:22;;;;;;;2.60;2.40;;;;;;;11.48;100.00;100915.94;4894731;29;20526;-66
2022/10/22 10:48:58;;;;;;;3.88;3.47;;;;;;;11.45;100.00;100917.16;4891627;29;20056;-67
2022/10/22 10:51:45;;;;;;;4.53;3.58;;;;;;;11.40;100.00;100908.03;4915958;29;20123;-66
2022/10/22 10:54:42;;;;;;;4.80;4.30;;;;;;;11.37;100.00;100924.63;4931123;29;20501;-66
2022/10/22 10:57:53;;;;;;;6.05;4.90;;;;;;;11.32;100.00;100917.13;4916631;29;20439;-66
2022/10/22 11:00:20;;;;;;;5.47;4.78;;;;;;;11.33;100.00;100915.28;4908710;29;20063;-67
2022/10/22 11:03:27;;;;;;;5.50;4.50;;;;;;;11.34;100.00;100915.06;4915050;29;20491;-66
2022/10/22 11:05:57;;;;;;;4.38;3.97;;;;;;;11.32;100.00;100916.28;4917122;29;20067;-67
2022/10/22 11:08:33;;;;;;;4.47;4.00;;;;;;;11.32;100.00;100911.72;4926596;29;20031;-66
2022/10/22 11:11:02;;;;;;;4.25;3.90;;;;;;;11.38;100.00;100927.09;4931899;29;20406;-66
2022/10/22 11:13:33;;;;;;;4.30;3.90;;;;;;;11.40;100.00;100922.34;4933303;29;20087;-66
2022/10/22 11:16:16;;;;;;;4.20;3.75;;;;;;;11.47;100.00;100917.81;4912910;29;20042;-66
2022/10/22 11:18:52;;;;;;;3.97;3.60;;;;;;;11.43;100.00;100911.16;4915141;29;20122;-67
2022/10/22 11:21:21;;;;;;;6.72;3.60;;;;;;;11.46;100.00;100913.47;4916276;29;20087;-67
2022/10/22 11:24:12;;;;;;;5.72;4.03;;;;;;;11.49;100.00;100913.06;4933754;29;20023;-67
2022/10/22 11:26:55;;;;;;;4.32;3.92;;;;;;;11.48;100.00;100913.25;4893645;29;20052;-67
2022/10/22 11:29:27;;;;;;;4.43;3.90;;;;;;;11.46;100.00;100913.47;4893592;29;20052;-69
2022/10/22 11:31:54;;;;;;;4.95;4.45;;;;;;;11.48;100.00;100908.69;4878541;29;20160;-68
2022/10/22 11:34:42;;;;;;;4.57;4.03;;;;;;;11.52;100.00;100901.88;4893847;29;20032;-69